EDT,Max TemperatureF,Mean TemperatureF,Min TemperatureF,Max Dew PointF,MeanDew PointF,Min DewpointF,Max Humidity, Mean Humidity, Min Humidity, Max Sea Level PressureIn, Mean Sea Level PressureIn, Min Sea Level PressureIn, Max VisibilityMiles, Mean VisibilityMiles, Min VisibilityMiles, Max Wind SpeedMPH, Mean Wind SpeedMPH, Max Gust SpeedMPH,PrecipitationIn, CloudCover, Events, WindDirDegrees
2013-7-1,82,74,66,70,66,60,93,74,54,29.91,29.84,29.78,10,7,1,14,3,20,0.55,6,Fog-Rain-Thunderstorm,291
2013-7-2,86,77,68,68,66,65,93,71,48,30.04,29.96,29.91,10,9,4,14,3,18,0.01,7,Fog-Rain-Thunderstorm,157
2013-7-3,75,73,70,72,69,66,93,86,79,30.17,30.11,30.04,10,8,5,10,2,15,0.08,8,Rain-Thunderstorm,89
2013-7-4,77,73,69,72,68,66,97,86,74,30.17,30.11,30.06,10,7,1,14,4,24,0.98,8,Rain,131
2013-7-5,75,73,71,72,70,68,93,89,84,30.19,30.14,30.09,10,6,2,10,4,15,0.27,8,Fog-Rain,156
2013-7-6,73,72,70,72,69,68,100,95,90,30.17,30.13,30.10,10,4,1,9,2,14,2.10,8,Fog-Rain,83
2013-7-7,81,75,69,74,71,68,100,91,82,30.18,30.13,30.09,10,5,1,32,2,135,2.21,7,Fog-Rain,152
2013-7-8,89,81,72,74,71,70,100,78,55,30.21,30.16,30.09,10,8,1,10,2,14,T,7,Fog-Rain,337
2013-7-9,90,82,73,76,72,70,94,75,55,30.19,30.14,30.05,10,8,0,12,1,14,0.00,6,Fog,175
2013-7-10,91,81,71,76,72,66,94,72,49,30.08,30.01,29.93,10,9,2,24,3,32,0.60,5,Fog-Rain-Thunderstorm,123
2013-7-11,88,80,71,75,71,69,93,76,59,30.01,29.95,29.87,10,8,3,8,3,26,0.27,6,Fog-Rain-Thunderstorm,263
2013-7-12,87,79,70,74,67,62,97,74,51,29.97,29.93,29.90,10,10,7,17,7,22,0.00,3,,11
2013-7-13,85,75,65,70,67,63,93,78,63,30.06,30.01,29.95,10,10,7,15,3,21,0.00,5,,152
2013-7-14,86,79,72,72,70,69,93,77,61,30.19,30.11,30.05,10,9,2,22,5,28,0.10,6,Fog-Rain,62
2013-7-15,89,80,71,72,69,66,90,70,50,30.28,30.23,30.19,10,10,10,17,4,20,T,5,Rain,119
2013-7-16,91,81,71,76,71,69,93,73,52,30.33,30.27,30.23,10,10,7,18,2,23,0.19,4,Fog-Rain-Thunderstorm,19
2013-7-17,94,83,72,74,71,66,93,70,46,30.29,30.23,30.14,10,10,10,15,5,22,T,4,Fog-Rain-Thunderstorm,3
2013-7-18,92,83,73,72,70,68,93,71,49,30.20,30.13,30.04,10,10,10,8,2,17,0.00,4,Rain,31
2013-7-19,92,83,74,73,72,68,88,69,49,30.12,30.04,29.96,10,10,5,10,2,14,0.07,4,Rain-Thunderstorm,246
2013-7-20,93,83,73,75,71,64,94,68,41,30.03,29.98,29.91,10,10,7,14,3,17,0.00,5,,180
2013-7-21,88,81,73,73,72,70,93,76,59,30.05,29.98,29.94,10,10,7,16,3,23,0.09,5,Rain-Thunderstorm,179
2013-7-22,87,80,72,72,70,65,93,72,51,30.00,29.95,29.86,10,10,7,18,6,23,T,5,Rain,201
2013-7-23,85,78,70,73,70,68,93,79,65,29.97,29.91,29.82,10,10,8,21,10,24,T,6,Rain,200
2013-7-24,86,79,71,73,70,67,93,75,57,29.92,29.87,29.82,10,10,6,17,3,20,0.10,5,Rain-Thunderstorm,274
2013-7-25,88,77,66,69,65,61,93,67,40,30.03,29.95,29.89,10,10,10,14,6,51,0.00,2,,358
2013-7-26,89,77,65,69,65,61,87,67,46,30.08,30.02,29.97,10,10,9,12,4,15,0.00,4,,286
2013-7-27,86,79,71,71,68,63,93,71,48,29.99,29.94,29.88,10,9,5,14,3,21,0.01,5,,192
2013-7-28,86,77,68,68,65,60,90,69,48,30.07,29.98,29.92,10,10,7,10,4,23,0.00,6,,321
2013-7-29,84,73,62,63,58,51,87,62,36,30.19,30.14,30.07,10,10,10,13,4,26,0.00,4,,356
2013-7-30,90,78,65,70,64,62,93,67,41,30.23,30.16,30.10,10,10,10,10,4,21,T,5,Rain,17
2013-7-31,79,74,69,72,69,65,93,84,74,30.16,30.08,29.97,10,7,1,14,4,18,0.70,8,Rain,183